createdAt,value
2018-11-20T00:00:43.388Z,77.63
2018-11-20T00:03:38.084Z,75.72
2018-11-20T00:06:26.475Z,76.67
2018-11-20T00:09:14.447Z,77.17
2018-11-20T00:12:03.431Z,75.30
2018-11-20T00:14:59.057Z,76.43
2018-11-20T00:17:46.484Z,77.11
2018-11-20T00:20:34.179Z,77.63
2018-11-20T00:23:23.679Z,77.95
2018-11-20T00:26:26.363Z,78.17
2018-11-20T00:29:13.874Z,78.26
2018-11-20T00:32:03.341Z,78.20
2018-11-20T00:34:51.263Z,78.25
2018-11-20T00:37:38.618Z,78.16
2018-11-20T00:40:25.799Z,77.98
2018-11-20T00:43:13.388Z,77.81
2018-11-20T00:46:01.378Z,77.95
2018-11-20T00:48:52.797Z,77.97
2018-11-20T00:51:43.002Z,78.01
2018-11-20T00:57:40.084Z,78.18
2018-11-20T01:00:33.191Z,78.05
2018-11-20T01:03:27.007Z,78.03
2018-11-20T01:06:31.026Z,78.18
2018-11-20T01:09:18.812Z,78.16
2018-11-20T01:12:06.400Z,76.40
2018-11-20T01:14:55.232Z,77.16
2018-11-20T01:17:44.414Z,77.40
2018-11-20T01:20:32.672Z,77.68
2018-11-20T01:23:20.528Z,75.90
2018-11-20T01:26:09.106Z,76.89
2018-11-20T01:28:57.210Z,77.24
2018-11-20T01:31:45.137Z,75.49
2018-11-20T01:34:36.980Z,76.41
2018-11-20T01:37:24.501Z,74.75
2018-11-20T01:40:12.170Z,73.87
2018-11-20T01:42:59.345Z,75.66
2018-11-20T01:45:47.100Z,74.12
2018-11-20T01:48:35.258Z,75.75
2018-11-20T01:51:22.809Z,76.40
2018-11-20T01:54:10.177Z,76.75
2018-11-20T01:56:57.603Z,77.12
2018-11-20T01:59:44.795Z,77.23
2018-11-20T02:02:31.889Z,77.37
2018-11-20T02:05:19.122Z,77.57
2018-11-20T02:08:06.904Z,77.58
2018-11-20T02:10:54.312Z,77.64
2018-11-20T02:13:41.779Z,77.56
2018-11-20T02:16:29.177Z,75.81
2018-11-20T02:19:17.303Z,76.57
2018-11-20T02:22:05.317Z,77.16
2018-11-20T02:24:54.049Z,77.44
2018-11-20T02:27:41.596Z,77.71
2018-11-20T02:30:29.084Z,77.67
2018-11-20T02:33:16.801Z,77.60
2018-11-20T02:36:04.388Z,77.54
2018-11-20T02:38:52.853Z,77.75
2018-11-20T02:41:50.353Z,75.87
2018-11-20T02:44:38.521Z,76.84
2018-11-20T02:47:25.795Z,77.25
2018-11-20T02:50:13.417Z,75.43
2018-11-20T02:53:00.995Z,76.50
2018-11-20T02:55:48.101Z,77.05
2018-11-20T02:58:35.671Z,77.29
2018-11-20T03:01:23.152Z,77.36
2018-11-20T03:04:10.234Z,77.60
2018-11-20T03:06:57.496Z,77.65
2018-11-20T03:09:44.991Z,77.88
2018-11-20T03:12:32.162Z,77.96
2018-11-20T03:15:19.655Z,77.95
2018-11-20T03:18:07.650Z,78.02
2018-11-20T03:20:55.148Z,78.00
2018-11-20T03:23:42.570Z,78.26
2018-11-20T03:26:29.961Z,78.36
2018-11-20T03:29:17.527Z,78.21
2018-11-20T03:32:04.885Z,78.29
2018-11-20T03:34:52.510Z,78.20
2018-11-20T03:37:41.059Z,78.23
2018-11-20T03:40:28.358Z,78.25
2018-11-20T03:43:16.213Z,78.27
2018-11-20T03:46:03.680Z,78.18
2018-11-20T03:48:50.908Z,78.23
2018-11-20T03:51:38.356Z,78.24
2018-11-20T03:57:31.825Z,78.35
2018-11-20T04:00:19.290Z,78.33
2018-11-20T04:03:07.114Z,78.40
2018-11-20T04:05:54.273Z,78.45
2018-11-20T04:08:41.860Z,78.43
2018-11-20T04:11:29.382Z,78.61
2018-11-20T04:14:19.022Z,76.72
2018-11-20T04:17:08.895Z,77.62
2018-11-20T04:19:56.418Z,76.06
2018-11-20T04:22:43.964Z,77.09
2018-11-20T04:25:31.767Z,77.59
2018-11-20T04:28:20.014Z,77.84
2018-11-20T04:31:34.060Z,78.00
2018-11-20T04:34:21.053Z,77.98
2018-11-20T04:37:08.127Z,78.02
2018-11-20T04:39:55.686Z,78.03
2018-11-20T04:42:43.086Z,78.12
2018-11-20T04:45:32.412Z,78.08
2018-11-20T04:48:21.309Z,78.07
2018-11-20T04:51:08.886Z,78.16
2018-11-20T04:53:55.779Z,78.26
2018-11-20T04:59:50.475Z,78.14
2018-11-20T05:02:40.889Z,78.23
2018-11-20T05:05:28.930Z,78.18
2018-11-20T05:08:16.764Z,78.01
2018-11-20T05:14:10.527Z,77.12
2018-11-20T05:16:57.758Z,77.49
2018-11-20T05:19:45.304Z,75.72
2018-11-20T05:22:32.937Z,76.74
2018-11-20T05:25:20.389Z,77.20
2018-11-20T05:28:08.134Z,77.58
2018-11-20T05:30:56.766Z,77.76
2018-11-20T05:33:45.720Z,78.01
2018-11-20T05:36:33.760Z,78.10
2018-11-20T05:39:21.343Z,78.21
2018-11-20T05:42:08.571Z,78.31
2018-11-20T05:44:56.574Z,78.43
2018-11-20T05:47:45.311Z,78.38
2018-11-20T05:50:33.083Z,78.54
2018-11-20T05:53:20.815Z,78.51
2018-11-20T05:56:10.322Z,78.62
2018-11-20T05:58:58.258Z,78.67
2018-11-20T06:01:47.838Z,78.83
2018-11-20T06:04:37.065Z,78.89
2018-11-20T06:07:27.544Z,77.08
2018-11-20T06:10:20.092Z,77.72
2018-11-20T06:13:08.120Z,78.05
2018-11-20T06:15:56.960Z,76.28
2018-11-20T06:18:45.801Z,75.12
2018-11-20T06:21:33.096Z,76.52
2018-11-20T06:24:20.557Z,77.14
2018-11-20T06:27:08.758Z,77.59
2018-11-20T06:29:56.545Z,77.83
2018-11-20T06:32:45.198Z,78.11
2018-11-20T06:35:32.183Z,78.24
2018-11-20T06:38:19.697Z,78.42
2018-11-20T06:41:07.268Z,78.50
2018-11-20T06:43:54.566Z,76.74
2018-11-20T06:46:41.980Z,75.36
2018-11-20T06:49:29.618Z,76.56
2018-11-20T06:52:22.517Z,77.15
2018-11-20T06:55:18.427Z,77.58
2018-11-20T06:58:12.571Z,77.72
2018-11-20T07:01:05.891Z,77.92
2018-11-20T07:03:52.801Z,77.94
2018-11-20T07:06:40.241Z,76.07
2018-11-20T07:09:28.064Z,76.75
2018-11-20T07:12:23.384Z,77.05
2018-11-20T07:15:12.957Z,77.09
2018-11-20T07:18:00.524Z,77.00
2018-11-20T07:20:47.598Z,75.24
2018-11-20T07:26:40.980Z,76.58
2018-11-20T07:29:28.638Z,76.86
2018-11-20T07:32:16.094Z,74.94
2018-11-20T07:35:03.979Z,73.57
2018-11-20T07:37:51.055Z,75.36
2018-11-20T07:40:38.889Z,76.02
2018-11-20T07:43:26.508Z,76.42
2018-11-20T07:46:13.552Z,76.78
2018-11-20T07:49:01.524Z,76.87
2018-11-20T07:51:49.730Z,74.86
2018-11-20T07:54:37.219Z,76.01
2018-11-20T07:57:25.300Z,76.53
2018-11-20T08:00:12.872Z,76.75
2018-11-20T08:03:00.971Z,76.70
2018-11-20T08:05:48.875Z,76.84
2018-11-20T08:08:36.028Z,76.70
2018-11-20T08:11:27.861Z,76.73
2018-11-20T08:14:16.193Z,76.43
2018-11-20T08:17:04.339Z,76.17
2018-11-20T08:19:52.218Z,76.19
2018-11-20T08:22:40.532Z,73.62
2018-11-20T08:25:28.438Z,74.78
2018-11-20T08:28:16.179Z,75.25
2018-11-20T08:31:04.293Z,75.65
2018-11-20T08:33:51.826Z,75.63
2018-11-20T08:36:39.457Z,75.47
2018-11-20T08:39:27.885Z,75.44
2018-11-20T08:42:15.417Z,72.89
2018-11-20T08:45:02.712Z,73.74
2018-11-20T08:47:50.428Z,74.30
2018-11-20T08:50:37.984Z,74.56
2018-11-20T08:53:25.477Z,74.55
2018-11-20T08:56:13.209Z,74.67
2018-11-20T08:59:01.285Z,74.59
2018-11-20T09:01:50.454Z,72.28
2018-11-20T09:04:39.381Z,70.54
2018-11-20T09:07:27.263Z,72.42
2018-11-20T09:10:15.416Z,73.18
2018-11-20T09:13:02.424Z,73.69
2018-11-20T09:15:49.667Z,73.85
2018-11-20T09:18:37.098Z,74.21
2018-11-20T09:21:25.477Z,74.50
2018-11-20T09:24:13.081Z,74.23
2018-11-20T09:27:00.491Z,74.30
2018-11-20T09:29:48.117Z,74.19
2018-11-20T09:32:35.317Z,74.04
2018-11-20T09:35:23.094Z,73.87
2018-11-20T09:38:09.951Z,74.10
2018-11-20T09:40:57.197Z,73.84
2018-11-20T09:43:44.571Z,73.84
2018-11-20T09:46:32.898Z,70.90
2018-11-20T09:49:20.108Z,72.21
2018-11-20T09:52:07.611Z,72.56
2018-11-20T09:54:54.946Z,70.17
2018-11-20T09:57:42.203Z,71.96
2018-11-20T10:00:29.735Z,72.63
2018-11-20T10:03:17.150Z,72.99
2018-11-20T10:08:35.464Z,73.29
2018-11-20T10:11:23.145Z,70.56
2018-11-20T10:14:10.429Z,71.82
2018-11-20T10:16:57.381Z,72.43
2018-11-20T10:19:46.397Z,73.16
2018-11-20T10:22:33.656Z,73.36
2018-11-20T10:25:20.878Z,73.44
2018-11-20T10:28:07.907Z,73.60
2018-11-20T10:30:55.210Z,73.67
2018-11-20T10:33:42.530Z,70.71
2018-11-20T10:36:30.829Z,72.25
2018-11-20T10:39:18.352Z,72.88
2018-11-20T10:42:09.781Z,70.22
2018-11-20T10:44:57.392Z,71.88
2018-11-20T10:47:48.369Z,72.54
2018-11-20T10:50:35.758Z,72.86
2018-11-20T10:53:23.852Z,73.07
2018-11-20T10:56:11.518Z,73.30
2018-11-20T10:58:58.756Z,70.34
2018-11-20T11:01:46.179Z,71.70
2018-11-20T11:04:33.712Z,72.33
2018-11-20T11:07:21.059Z,72.69
2018-11-20T11:10:08.239Z,70.18
2018-11-20T11:12:55.431Z,71.95
2018-11-20T11:15:42.933Z,72.60
2018-11-20T11:18:30.931Z,72.77
2018-11-20T11:21:18.137Z,72.87
2018-11-20T11:24:05.404Z,73.15
2018-11-20T11:26:52.574Z,73.08
2018-11-20T11:29:40.278Z,73.43
2018-11-20T11:32:27.696Z,73.60
2018-11-20T11:35:15.128Z,73.78
2018-11-20T11:38:02.566Z,71.03
2018-11-20T11:40:50.039Z,72.44
2018-11-20T11:43:37.540Z,72.81
2018-11-20T11:46:25.035Z,73.12
2018-11-20T11:49:12.403Z,70.52
2018-11-20T11:52:00.002Z,71.88
2018-11-20T11:54:47.219Z,72.80
2018-11-20T11:57:34.728Z,72.99
2018-11-20T12:00:22.804Z,73.20
2018-11-20T12:05:56.128Z,73.67
2018-11-20T12:08:44.021Z,73.49
2018-11-20T12:11:32.074Z,73.55
2018-11-20T12:14:20.036Z,73.56
2018-11-20T12:17:07.515Z,73.48
2018-11-20T12:19:55.897Z,73.67
2018-11-20T12:22:43.872Z,74.09
2018-11-20T12:25:31.557Z,74.00
2018-11-20T12:28:19.129Z,74.03
2018-11-20T12:31:06.434Z,74.13
2018-11-20T12:33:53.750Z,74.12
2018-11-20T12:36:41.198Z,74.21
2018-11-20T12:39:28.563Z,74.39
2018-11-20T12:42:17.043Z,71.93
2018-11-20T12:45:04.401Z,73.09
2018-11-20T12:47:51.478Z,73.53
2018-11-20T12:50:39.238Z,73.67
2018-11-20T12:53:27.454Z,73.83
2018-11-20T12:56:15.070Z,74.03
2018-11-20T12:59:02.717Z,74.18
2018-11-20T13:01:50.369Z,74.28
2018-11-20T13:04:39.510Z,74.30
2018-11-20T13:07:26.963Z,74.23
2018-11-20T13:10:14.306Z,74.39
2018-11-20T13:13:01.527Z,74.42
2018-11-20T13:15:51.488Z,74.53
2018-11-20T13:18:37.435Z,74.43
2018-11-20T13:21:24.769Z,72.10
2018-11-20T13:24:13.631Z,73.47
2018-11-20T13:27:00.148Z,73.87
2018-11-20T13:29:47.962Z,74.28
2018-11-20T13:32:39.388Z,74.55
2018-11-20T13:35:27.514Z,74.92
2018-11-20T13:38:14.637Z,72.69
2018-11-20T13:41:27.766Z,74.07
2018-11-20T13:44:14.955Z,75.50
2018-11-20T13:47:04.035Z,76.55
2018-11-20T13:49:51.929Z,77.39
2018-11-20T13:55:45.294Z,78.88
2018-11-20T13:58:34.898Z,79.19
2018-11-20T14:04:29.268Z,81.72
2018-11-20T14:07:16.649Z,82.10
2018-11-20T14:10:19.393Z,82.59
2018-11-20T14:13:07.672Z,82.85
2018-11-20T14:19:18.496Z,83.35
2018-11-20T14:22:04.345Z,83.64
2018-11-20T14:24:54.156Z,83.77
2018-11-20T14:27:41.292Z,83.88
2018-11-20T14:30:31.397Z,84.01
2018-11-20T14:36:39.426Z,84.32
2018-11-20T14:39:43.744Z,84.47
2018-11-20T14:42:31.520Z,84.66
2018-11-20T14:45:36.749Z,84.64
2018-11-20T14:48:24.604Z,84.84
2018-11-20T14:51:13.762Z,84.86
2018-11-20T14:54:02.378Z,85.08
2018-11-20T14:56:50.062Z,85.38
2018-11-20T14:59:52.432Z,85.28
2018-11-20T15:02:39.672Z,83.56
2018-11-20T15:14:48.189Z,85.51
2018-11-20T15:17:35.798Z,85.67
2018-11-20T15:20:24.638Z,84.23
2018-11-20T15:23:12.267Z,85.05
2018-11-20T15:26:04.835Z,85.42
2018-11-20T15:28:52.978Z,85.61
2018-11-20T15:31:41.263Z,85.86
2018-11-20T15:34:28.957Z,86.10
2018-11-20T15:37:18.331Z,86.08
2018-11-20T15:43:13.554Z,86.44
2018-11-20T15:46:04.179Z,86.64
2018-11-20T15:48:51.849Z,86.79
2018-11-20T15:51:39.883Z,85.22
2018-11-20T16:00:56.705Z,86.44
2018-11-20T16:07:12.542Z,86.85
2018-11-20T16:10:03.272Z,86.87
2018-11-20T16:12:50.607Z,87.09
2018-11-20T16:15:42.245Z,87.28
2018-11-20T16:18:31.850Z,87.31
2018-11-20T16:21:42.920Z,87.63
2018-11-20T16:24:31.947Z,87.61
2018-11-20T16:27:19.743Z,87.56
2018-11-20T16:30:07.107Z,87.96
2018-11-20T16:32:54.634Z,87.84
2018-11-20T16:35:41.931Z,87.78
2018-11-20T16:38:33.436Z,87.79
2018-11-20T16:41:20.464Z,88.03
2018-11-20T16:44:26.746Z,88.06
2018-11-20T16:47:15.190Z,88.17
2018-11-20T16:50:02.416Z,88.08
2018-11-20T16:52:54.801Z,88.09
2018-11-20T16:55:42.459Z,88.20
2018-11-20T16:58:30.023Z,88.16
2018-11-20T17:01:17.758Z,88.09
2018-11-20T17:07:15.686Z,88.10
2018-11-20T17:10:05.585Z,88.08
2018-11-20T17:12:53.457Z,88.07
2018-11-20T17:15:43.313Z,88.15
2018-11-20T17:18:41.845Z,88.20
2018-11-20T17:24:37.818Z,88.01
2018-11-20T17:27:25.838Z,87.99
2018-11-20T17:30:15.280Z,87.93
2018-11-20T17:33:02.342Z,87.86
2018-11-20T17:35:52.192Z,87.75
2018-11-20T17:38:41.895Z,87.82
2018-11-20T17:41:40.050Z,87.76
2018-11-20T17:44:27.951Z,87.69
2018-11-20T17:47:15.398Z,87.67
2018-11-20T17:50:16.123Z,87.58
2018-11-20T17:53:06.698Z,87.50
2018-11-20T17:55:57.111Z,87.39
2018-11-20T17:58:46.568Z,87.35
2018-11-20T18:01:34.209Z,87.45
2018-11-20T18:04:21.376Z,87.37
2018-11-20T18:07:09.417Z,87.55
2018-11-20T18:09:56.673Z,87.46
2018-11-20T18:12:45.282Z,87.50
2018-11-20T18:15:32.739Z,87.44
2018-11-20T18:21:30.832Z,87.34
2018-11-20T18:24:23.285Z,87.29
2018-11-20T18:27:06.535Z,87.26
2018-11-20T18:29:54.395Z,85.77
2018-11-20T18:32:41.980Z,86.21
2018-11-20T18:35:29.503Z,86.34
2018-11-20T18:38:16.855Z,86.38
2018-11-20T18:41:06.039Z,86.47
2018-11-20T18:43:53.359Z,86.52
2018-11-20T18:46:45.974Z,86.57
2018-11-20T18:49:33.774Z,85.17
2018-11-20T18:52:20.827Z,85.76
2018-11-20T18:58:14.932Z,86.19
2018-11-20T19:01:02.744Z,86.30
2018-11-20T19:03:54.321Z,86.47
2018-11-20T19:06:41.775Z,86.44
2018-11-20T19:09:29.452Z,84.99
2018-11-20T19:12:16.711Z,84.05
2018-11-20T19:15:05.373Z,83.16
2018-11-20T19:17:53.170Z,82.30
2018-11-20T19:20:40.382Z,83.33
2018-11-20T19:23:27.463Z,82.15
2018-11-20T19:26:17.051Z,83.14
2018-11-20T19:29:04.754Z,83.72
2018-11-20T19:31:53.390Z,84.12
2018-11-20T19:34:45.442Z,84.60
2018-11-20T19:37:33.776Z,83.10
2018-11-20T19:40:22.037Z,83.95
2018-11-20T19:43:09.897Z,84.22
2018-11-20T19:45:58.559Z,84.46
2018-11-20T19:52:00.577Z,84.83
2018-11-20T19:54:42.140Z,85.00
2018-11-20T19:57:29.459Z,85.08
2018-11-20T20:00:18.449Z,85.20
2018-11-20T20:03:06.753Z,85.22
2018-11-20T20:05:54.275Z,85.24
2018-11-20T20:08:41.960Z,85.31
2018-11-20T20:11:30.305Z,85.34
2018-11-20T20:14:19.241Z,85.31
2018-11-20T20:17:07.391Z,85.30
2018-11-20T20:19:55.258Z,83.86
2018-11-20T20:22:43.576Z,84.32
2018-11-20T20:25:31.892Z,84.49
2018-11-20T20:28:22.409Z,84.63
2018-11-20T20:31:09.885Z,84.69
2018-11-20T20:34:00.580Z,84.71
2018-11-20T20:36:49.621Z,84.76
2018-11-20T20:39:38.259Z,84.84
2018-11-20T20:42:27.122Z,84.85
2018-11-20T20:45:15.045Z,84.90
2018-11-20T20:48:02.602Z,84.97
2018-11-20T20:50:50.702Z,84.94
2018-11-20T20:53:37.739Z,84.96
2018-11-20T20:56:26.712Z,84.93
2018-11-20T20:59:14.182Z,84.95
2018-11-20T21:02:04.193Z,83.57
2018-11-20T21:04:52.024Z,82.46
2018-11-20T21:07:43.419Z,83.16
2018-11-20T21:13:39.122Z,83.72
2018-11-20T21:16:27.948Z,83.93
2018-11-20T21:19:15.849Z,84.09
2018-11-20T21:22:03.941Z,84.19
2018-11-20T21:24:52.036Z,84.29
2018-11-20T21:27:40.678Z,82.85
2018-11-20T21:30:28.365Z,83.45
2018-11-20T21:33:16.872Z,82.07
2018-11-20T21:36:07.560Z,82.76
2018-11-20T21:38:56.294Z,81.52
2018-11-20T21:41:46.047Z,82.30
2018-11-20T21:44:34.528Z,82.79
2018-11-20T21:47:22.374Z,83.20
2018-11-20T21:50:12.748Z,81.93
2018-11-20T21:53:00.006Z,82.75
2018-11-20T21:55:49.256Z,83.23
2018-11-20T21:58:36.901Z,83.60
2018-11-20T22:01:25.324Z,83.88
2018-11-20T22:04:14.566Z,83.96
2018-11-20T22:07:02.417Z,82.70
2018-11-20T22:09:50.170Z,83.29
2018-11-20T22:12:37.698Z,83.61
2018-11-20T22:15:25.839Z,83.97
2018-11-20T22:18:13.875Z,84.10
2018-11-20T22:21:02.007Z,84.24
2018-11-20T22:23:49.903Z,84.39
2018-11-20T22:26:38.113Z,84.66
2018-11-20T22:29:25.637Z,84.74
2018-11-20T22:32:15.192Z,84.86
2018-11-20T22:35:02.880Z,85.02
2018-11-20T22:37:50.441Z,84.95
2018-11-20T22:40:38.147Z,84.92
2018-11-20T22:43:26.056Z,85.10
2018-11-20T22:46:13.705Z,85.15
2018-11-20T22:49:01.943Z,85.20
2018-11-20T22:51:51.213Z,85.35
2018-11-20T22:54:40.877Z,85.46
2018-11-20T22:57:28.583Z,84.07
2018-11-20T23:00:16.652Z,84.51
2018-11-20T23:03:04.879Z,84.58
2018-11-20T23:05:52.449Z,84.70
2018-11-20T23:08:41.391Z,84.78
2018-11-20T23:11:29.323Z,84.88
2018-11-20T23:14:17.400Z,84.98
2018-11-20T23:17:07.953Z,85.03
2018-11-20T23:19:55.709Z,85.10
2018-11-20T23:22:43.707Z,85.17
2018-11-20T23:25:31.547Z,83.87
2018-11-20T23:28:18.580Z,82.99
2018-11-20T23:31:05.953Z,83.69
2018-11-20T23:33:53.685Z,84.03
2018-11-20T23:36:42.808Z,84.28
2018-11-20T23:39:32.837Z,84.30
2018-11-20T23:42:23.828Z,84.36
2018-11-20T23:45:08.360Z,83.16
2018-11-20T23:47:55.695Z,83.60
2018-11-20T23:50:48.445Z,83.83
2018-11-20T23:53:35.866Z,84.03
2018-11-20T23:56:23.267Z,84.11
2018-11-20T23:59:12.465Z,84.29
